sensor_id;sensor_type;location;lat;lon;timestamp;P1;durP1;ratioP1;P2;durP2;ratioP2
3293;SDS011;1659;51.470;6.770;2023-03-01T00:00:39;25.17;;;14.73;;
3293;SDS011;1659;51.470;6.770;2023-03-01T00:03:06;24.33;;;14.33;;
3293;SDS011;1659;51.470;6.770;2023-03-01T00:05:36;19.10;;;13.87;;
3293;SDS011;1659;51.470;6.770;2023-03-01T00:08:02;24.57;;;15.10;;
3293;SDS011;1659;51.470;6.770;2023-03-01T00:10:29;21.17;;;14.23;;
3293;SDS011;1659;51.470;6.770;2023-03-01T00:12:55;27.57;;;14.73;;
3293;SDS011;1659;51.470;6.770;2023-03-01T00:15:23;24.87;;;15.53;;
3293;SDS011;1659;51.470;6.770;2023-03-01T00:17:50;27.03;;;15.60;;
3293;SDS011;1659;51.470;6.770;2023-03-01T00:20:16;24.00;;;14.90;;
3293;SDS011;1659;51.470;6.770;2023-03-01T00:22:43;21.37;;;13.70;;
3293;SDS011;1659;51.470;6.770;2023-03-01T00:25:09;26.63;;;15.13;;
3293;SDS011;1659;51.470;6.770;2023-03-01T00:27:36;21.10;;;15.17;;
3293;SDS011;1659;51.470;6.770;2023-03-01T00:30:03;25.57;;;14.80;;
3293;SDS011;1659;51.470;6.770;2023-03-01T00:32:31;23.77;;;15.73;;
3293;SDS011;1659;51.470;6.770;2023-03-01T00:34:59;28.20;;;16.30;;
3293;SDS011;1659;51.470;6.770;2023-03-01T00:37:25;27.73;;;14.00;;
3293;SDS011;1659;51.470;6.770;2023-03-01T00:39:52;23.53;;;15.90;;
3293;SDS011;1659;51.470;6.770;2023-03-01T00:42:18;22.20;;;14.90;;
3293;SDS011;1659;51.470;6.770;2023-03-01T00:44:47;23.63;;;15.33;;
3293;SDS011;1659;51.470;6.770;2023-03-01T00:47:13;19.30;;;14.20;;
3293;SDS011;1659;51.470;6.770;2023-03-01T00:49:41;22.07;;;14.47;;
3293;SDS011;1659;51.470;6.770;2023-03-01T00:52:08;26.50;;;15.03;;
3293;SDS011;1659;51.470;6.770;2023-03-01T00:54:34;26.60;;;14.33;;
3293;SDS011;1659;51.470;6.770;2023-03-01T00:57:01;28.63;;;15.93;;
3293;SDS011;1659;51.470;6.770;2023-03-01T00:59:27;23.67;;;15.60;;
3293;SDS011;1659;51.470;6.770;2023-03-01T01:01:54;26.80;;;15.33;;
3293;SDS011;1659;51.470;6.770;2023-03-01T01:04:20;24.17;;;14.57;;
3293;SDS011;1659;51.470;6.770;2023-03-01T01:06:48;23.87;;;17.10;;
3293;SDS011;1659;51.470;6.770;2023-03-01T01:09:16;24.50;;;15.10;;
3293;SDS011;1659;51.470;6.770;2023-03-01T01:11:43;23.23;;;15.70;;
3293;SDS011;1659;51.470;6.770;2023-03-01T01:14:11;30.60;;;16.73;;
3293;SDS011;1659;51.470;6.770;2023-03-01T01:16:38;28.47;;;15.90;;
3293;SDS011;1659;51.470;6.770;2023-03-01T01:19:05;24.30;;;16.23;;
3293;SDS011;1659;51.470;6.770;2023-03-01T01:21:32;28.43;;;16.20;;
3293;SDS011;1659;51.470;6.770;2023-03-01T01:24:02;27.20;;;17.40;;
3293;SDS011;1659;51.470;6.770;2023-03-01T01:26:29;24.10;;;14.53;;
3293;SDS011;1659;51.470;6.770;2023-03-01T01:28:58;30.90;;;18.37;;
3293;SDS011;1659;51.470;6.770;2023-03-01T01:31:26;29.57;;;16.13;;
3293;SDS011;1659;51.470;6.770;2023-03-01T01:33:53;25.50;;;14.93;;
3293;SDS011;1659;51.470;6.770;2023-03-01T01:36:21;28.33;;;15.90;;
3293;SDS011;1659;51.470;6.770;2023-03-01T01:38:48;25.50;;;15.03;;
3293;SDS011;1659;51.470;6.770;2023-03-01T01:41:18;32.53;;;16.60;;
3293;SDS011;1659;51.470;6.770;2023-03-01T01:43:46;21.90;;;15.63;;
3293;SDS011;1659;51.470;6.770;2023-03-01T01:46:15;23.80;;;16.37;;
3293;SDS011;1659;51.470;6.770;2023-03-01T01:48:52;27.30;;;16.33;;
3293;SDS011;1659;51.470;6.770;2023-03-01T01:51:22;24.90;;;16.20;;
3293;SDS011;1659;51.470;6.770;2023-03-01T01:53:53;26.50;;;15.60;;
3293;SDS011;1659;51.470;6.770;2023-03-01T01:56:24;24.47;;;16.23;;
3293;SDS011;1659;51.470;6.770;2023-03-01T01:58:53;25.80;;;15.90;;
3293;SDS011;1659;51.470;6.770;2023-03-01T02:01:20;22.50;;;14.17;;
3293;SDS011;1659;51.470;6.770;2023-03-01T02:03:47;28.23;;;17.03;;
3293;SDS011;1659;51.470;6.770;2023-03-01T02:06:17;23.47;;;15.87;;
3293;SDS011;1659;51.470;6.770;2023-03-01T02:08:48;28.60;;;17.30;;
3293;SDS011;1659;51.470;6.770;2023-03-01T02:11:17;23.43;;;15.50;;
3293;SDS011;1659;51.470;6.770;2023-03-01T02:13:46;23.23;;;16.53;;
3293;SDS011;1659;51.470;6.770;2023-03-01T02:16:14;27.37;;;16.57;;
3293;SDS011;1659;51.470;6.770;2023-03-01T02:18:41;27.80;;;16.03;;
3293;SDS011;1659;51.470;6.770;2023-03-01T02:21:13;22.77;;;15.40;;
3293;SDS011;1659;51.470;6.770;2023-03-01T02:23:49;29.70;;;16.73;;
3293;SDS011;1659;51.470;6.770;2023-03-01T02:26:18;30.43;;;15.87;;
3293;SDS011;1659;51.470;6.770;2023-03-01T02:28:50;25.53;;;14.93;;
3293;SDS011;1659;51.470;6.770;2023-03-01T02:31:18;25.47;;;14.27;;
3293;SDS011;1659;51.470;6.770;2023-03-01T02:34:03;24.20;;;14.73;;
3293;SDS011;1659;51.470;6.770;2023-03-01T02:36:31;34.10;;;17.20;;
3293;SDS011;1659;51.470;6.770;2023-03-01T02:39:03;27.63;;;15.93;;
3293;SDS011;1659;51.470;6.770;2023-03-01T02:41:33;23.17;;;14.80;;
3293;SDS011;1659;51.470;6.770;2023-03-01T02:44:03;27.03;;;14.90;;
3293;SDS011;1659;51.470;6.770;2023-03-01T02:46:30;26.80;;;15.03;;
3293;SDS011;1659;51.470;6.770;2023-03-01T02:48:57;31.30;;;15.70;;
3293;SDS011;1659;51.470;6.770;2023-03-01T02:51:31;26.20;;;14.20;;
3293;SDS011;1659;51.470;6.770;2023-03-01T02:54:10;29.33;;;16.40;;
3293;SDS011;1659;51.470;6.770;2023-03-01T02:56:42;27.50;;;15.07;;
3293;SDS011;1659;51.470;6.770;2023-03-01T02:59:14;24.50;;;15.57;;
3293;SDS011;1659;51.470;6.770;2023-03-01T03:01:42;31.50;;;17.23;;
3293;SDS011;1659;51.470;6.770;2023-03-01T03:04:10;23.10;;;15.70;;
3293;SDS011;1659;51.470;6.770;2023-03-01T03:06:41;31.17;;;16.50;;
3293;SDS011;1659;51.470;6.770;2023-03-01T03:09:09;27.47;;;16.20;;
3293;SDS011;1659;51.470;6.770;2023-03-01T03:11:36;30.47;;;16.50;;
3293;SDS011;1659;51.470;6.770;2023-03-01T03:14:04;30.17;;;14.93;;
3293;SDS011;1659;51.470;6.770;2023-03-01T03:16:32;27.27;;;15.07;;
3293;SDS011;1659;51.470;6.770;2023-03-01T03:18:58;27.23;;;14.93;;
3293;SDS011;1659;51.470;6.770;2023-03-01T03:21:30;29.60;;;16.10;;
3293;SDS011;1659;51.470;6.770;2023-03-01T03:23:56;23.80;;;14.20;;
3293;SDS011;1659;51.470;6.770;2023-03-01T03:26:23;26.83;;;15.10;;
3293;SDS011;1659;51.470;6.770;2023-03-01T03:28:50;23.63;;;14.80;;
3293;SDS011;1659;51.470;6.770;2023-03-01T03:31:17;25.87;;;16.63;;
3293;SDS011;1659;51.470;6.770;2023-03-01T03:33:45;23.07;;;15.40;;
3293;SDS011;1659;51.470;6.770;2023-03-01T03:36:14;28.13;;;15.00;;
3293;SDS011;1659;51.470;6.770;2023-03-01T03:38:42;25.80;;;15.53;;
3293;SDS011;1659;51.470;6.770;2023-03-01T03:41:09;24.10;;;13.70;;
3293;SDS011;1659;51.470;6.770;2023-03-01T03:43:36;24.77;;;15.03;;
3293;SDS011;1659;51.470;6.770;2023-03-01T03:46:04;25.10;;;14.53;;
3293;SDS011;1659;51.470;6.770;2023-03-01T03:48:31;27.10;;;15.80;;
3293;SDS011;1659;51.470;6.770;2023-03-01T03:51:00;29.20;;;15.20;;
3293;SDS011;1659;51.470;6.770;2023-03-01T03:53:30;30.43;;;15.20;;
3293;SDS011;1659;51.470;6.770;2023-03-01T03:55:56;31.73;;;15.60;;
3293;SDS011;1659;51.470;6.770;2023-03-01T03:58:24;26.80;;;15.00;;
3293;SDS011;1659;51.470;6.770;2023-03-01T04:00:52;22.87;;;13.87;;
3293;SDS011;1659;51.470;6.770;2023-03-01T04:03:20;24.73;;;15.07;;
3293;SDS011;1659;51.470;6.770;2023-03-01T04:05:47;24.13;;;14.10;;
3293;SDS011;1659;51.470;6.770;2023-03-01T04:08:17;28.80;;;14.47;;
3293;SDS011;1659;51.470;6.770;2023-03-01T04:10:46;23.43;;;14.60;;
3293;SDS011;1659;51.470;6.770;2023-03-01T04:13:14;26.00;;;15.23;;
3293;SDS011;1659;51.470;6.770;2023-03-01T04:15:44;28.83;;;15.67;;
3293;SDS011;1659;51.470;6.770;2023-03-01T04:18:11;28.40;;;15.63;;
3293;SDS011;1659;51.470;6.770;2023-03-01T04:20:39;28.47;;;14.77;;
3293;SDS011;1659;51.470;6.770;2023-03-01T04:23:06;34.93;;;15.47;;
3293;SDS011;1659;51.470;6.770;2023-03-01T04:25:40;39.17;;;16.27;;
3293;SDS011;1659;51.470;6.770;2023-03-01T04:28:08;21.07;;;14.10;;
3293;SDS011;1659;51.470;6.770;2023-03-01T04:30:35;21.87;;;14.43;;
3293;SDS011;1659;51.470;6.770;2023-03-01T04:33:03;27.30;;;15.20;;
3293;SDS011;1659;51.470;6.770;2023-03-01T04:35:30;25.00;;;15.53;;
3293;SDS011;1659;51.470;6.770;2023-03-01T04:37:57;24.07;;;16.00;;
3293;SDS011;1659;51.470;6.770;2023-03-01T04:40:24;21.70;;;13.90;;
3293;SDS011;1659;51.470;6.770;2023-03-01T04:42:52;30.10;;;17.43;;
3293;SDS011;1659;51.470;6.770;2023-03-01T04:45:19;32.80;;;16.57;;
3293;SDS011;1659;51.470;6.770;2023-03-01T04:47:45;26.53;;;15.40;;
3293;SDS011;1659;51.470;6.770;2023-03-01T04:50:13;30.00;;;17.47;;
3293;SDS011;1659;51.470;6.770;2023-03-01T04:52:41;30.60;;;17.60;;
3293;SDS011;1659;51.470;6.770;2023-03-01T04:55:08;24.27;;;15.90;;
3293;SDS011;1659;51.470;6.770;2023-03-01T04:57:38;25.17;;;15.87;;
3293;SDS011;1659;51.470;6.770;2023-03-01T05:00:07;31.83;;;14.97;;
3293;SDS011;1659;51.470;6.770;2023-03-01T05:02:46;24.73;;;15.77;;
3293;SDS011;1659;51.470;6.770;2023-03-01T05:05:18;35.90;;;17.60;;
3293;SDS011;1659;51.470;6.770;2023-03-01T05:07:45;33.07;;;16.90;;
3293;SDS011;1659;51.470;6.770;2023-03-01T05:10:12;32.07;;;15.67;;
3293;SDS011;1659;51.470;6.770;2023-03-01T05:12:38;30.20;;;16.10;;
3293;SDS011;1659;51.470;6.770;2023-03-01T05:15:07;27.57;;;15.13;;
3293;SDS011;1659;51.470;6.770;2023-03-01T05:17:34;26.77;;;16.00;;
3293;SDS011;1659;51.470;6.770;2023-03-01T05:20:00;34.13;;;16.40;;
3293;SDS011;1659;51.470;6.770;2023-03-01T05:22:30;34.23;;;18.13;;
3293;SDS011;1659;51.470;6.770;2023-03-01T05:24:57;31.60;;;16.87;;
3293;SDS011;1659;51.470;6.770;2023-03-01T05:27:23;27.70;;;15.60;;
3293;SDS011;1659;51.470;6.770;2023-03-01T05:29:50;30.50;;;16.60;;
3293;SDS011;1659;51.470;6.770;2023-03-01T05:32:18;35.53;;;17.23;;
3293;SDS011;1659;51.470;6.770;2023-03-01T05:34:44;33.13;;;16.80;;
3293;SDS011;1659;51.470;6.770;2023-03-01T05:37:12;26.73;;;16.40;;
3293;SDS011;1659;51.470;6.770;2023-03-01T05:39:39;38.77;;;17.37;;
3293;SDS011;1659;51.470;6.770;2023-03-01T05:42:10;28.17;;;17.17;;
3293;SDS011;1659;51.470;6.770;2023-03-01T05:44:41;29.43;;;16.70;;
3293;SDS011;1659;51.470;6.770;2023-03-01T05:47:07;28.50;;;17.27;;
3293;SDS011;1659;51.470;6.770;2023-03-01T05:49:35;28.03;;;17.73;;
3293;SDS011;1659;51.470;6.770;2023-03-01T05:52:02;39.73;;;16.73;;
3293;SDS011;1659;51.470;6.770;2023-03-01T05:54:28;29.93;;;17.70;;
3293;SDS011;1659;51.470;6.770;2023-03-01T05:56:55;29.10;;;16.47;;
3293;SDS011;1659;51.470;6.770;2023-03-01T05:59:22;28.90;;;17.43;;
3293;SDS011;1659;51.470;6.770;2023-03-01T06:01:48;30.70;;;17.80;;
3293;SDS011;1659;51.470;6.770;2023-03-01T06:04:15;27.97;;;17.40;;
3293;SDS011;1659;51.470;6.770;2023-03-01T06:06:43;28.90;;;16.50;;
3293;SDS011;1659;51.470;6.770;2023-03-01T06:09:09;41.03;;;17.23;;
3293;SDS011;1659;51.470;6.770;2023-03-01T06:11:36;29.37;;;16.67;;
3293;SDS011;1659;51.470;6.770;2023-03-01T06:14:03;28.10;;;14.70;;
3293;SDS011;1659;51.470;6.770;2023-03-01T06:16:31;35.87;;;16.60;;
3293;SDS011;1659;51.470;6.770;2023-03-01T06:18:57;28.73;;;16.00;;
3293;SDS011;1659;51.470;6.770;2023-03-01T06:21:24;34.10;;;17.23;;
3293;SDS011;1659;51.470;6.770;2023-03-01T06:23:52;28.43;;;16.17;;
3293;SDS011;1659;51.470;6.770;2023-03-01T06:26:18;29.20;;;17.30;;
3293;SDS011;1659;51.470;6.770;2023-03-01T06:28:45;37.10;;;18.10;;
3293;SDS011;1659;51.470;6.770;2023-03-01T06:31:12;29.93;;;16.53;;
3293;SDS011;1659;51.470;6.770;2023-03-01T06:33:38;28.00;;;16.50;;
3293;SDS011;1659;51.470;6.770;2023-03-01T06:36:05;27.60;;;16.03;;
3293;SDS011;1659;51.470;6.770;2023-03-01T06:38:33;30.80;;;16.20;;
3293;SDS011;1659;51.470;6.770;2023-03-01T06:41:01;26.70;;;16.00;;
3293;SDS011;1659;51.470;6.770;2023-03-01T06:43:27;34.70;;;16.37;;
3293;SDS011;1659;51.470;6.770;2023-03-01T06:45:54;31.53;;;15.40;;
3293;SDS011;1659;51.470;6.770;2023-03-01T06:48:20;30.30;;;17.23;;
3293;SDS011;1659;51.470;6.770;2023-03-01T06:50:47;31.97;;;17.20;;
3293;SDS011;1659;51.470;6.770;2023-03-01T06:53:13;28.70;;;16.70;;
3293;SDS011;1659;51.470;6.770;2023-03-01T06:55:40;28.63;;;16.97;;
3293;SDS011;1659;51.470;6.770;2023-03-01T06:58:08;24.50;;;16.23;;
3293;SDS011;1659;51.470;6.770;2023-03-01T07:00:35;35.20;;;17.73;;
3293;SDS011;1659;51.470;6.770;2023-03-01T07:03:05;31.03;;;19.00;;
3293;SDS011;1659;51.470;6.770;2023-03-01T07:05:32;35.93;;;19.50;;
3293;SDS011;1659;51.470;6.770;2023-03-01T07:07:59;62.33;;;21.80;;
3293;SDS011;1659;51.470;6.770;2023-03-01T07:10:26;37.53;;;20.17;;
3293;SDS011;1659;51.470;6.770;2023-03-01T07:12:54;38.83;;;21.97;;
3293;SDS011;1659;51.470;6.770;2023-03-01T07:15:22;35.13;;;19.43;;
3293;SDS011;1659;51.470;6.770;2023-03-01T07:17:51;31.53;;;20.00;;
3293;SDS011;1659;51.470;6.770;2023-03-01T07:20:18;35.80;;;20.07;;
3293;SDS011;1659;51.470;6.770;2023-03-01T07:22:47;35.60;;;19.33;;
3293;SDS011;1659;51.470;6.770;2023-03-01T07:25:14;34.40;;;19.83;;
3293;SDS011;1659;51.470;6.770;2023-03-01T07:27:41;36.67;;;20.70;;
3293;SDS011;1659;51.470;6.770;2023-03-01T07:30:08;34.40;;;19.93;;
3293;SDS011;1659;51.470;6.770;2023-03-01T07:32:37;38.23;;;20.23;;
3293;SDS011;1659;51.470;6.770;2023-03-01T07:35:04;26.80;;;18.00;;
3293;SDS011;1659;51.470;6.770;2023-03-01T07:37:31;34.60;;;21.00;;
3293;SDS011;1659;51.470;6.770;2023-03-01T07:39:57;33.33;;;19.57;;
3293;SDS011;1659;51.470;6.770;2023-03-01T07:42:24;29.83;;;19.40;;
3293;SDS011;1659;51.470;6.770;2023-03-01T07:44:50;36.90;;;18.30;;
3293;SDS011;1659;51.470;6.770;2023-03-01T07:47:17;31.23;;;18.50;;
3293;SDS011;1659;51.470;6.770;2023-03-01T07:49:45;35.50;;;18.57;;
3293;SDS011;1659;51.470;6.770;2023-03-01T07:52:11;32.03;;;17.90;;
3293;SDS011;1659;51.470;6.770;2023-03-01T07:54:38;27.43;;;17.20;;
3293;SDS011;1659;51.470;6.770;2023-03-01T07:57:05;30.27;;;16.20;;
3293;SDS011;1659;51.470;6.770;2023-03-01T07:59:31;22.40;;;16.10;;
3293;SDS011;1659;51.470;6.770;2023-03-01T08:01:58;24.53;;;15.80;;
3293;SDS011;1659;51.470;6.770;2023-03-01T08:04:25;23.83;;;15.70;;
3293;SDS011;1659;51.470;6.770;2023-03-01T08:06:53;25.57;;;15.13;;
3293;SDS011;1659;51.470;6.770;2023-03-01T08:09:20;27.80;;;16.00;;
3293;SDS011;1659;51.470;6.770;2023-03-01T08:11:47;24.77;;;14.70;;
3293;SDS011;1659;51.470;6.770;2023-03-01T08:14:14;24.87;;;15.80;;
3293;SDS011;1659;51.470;6.770;2023-03-01T08:16:40;22.97;;;13.40;;
3293;SDS011;1659;51.470;6.770;2023-03-01T08:19:07;21.00;;;14.00;;
3293;SDS011;1659;51.470;6.770;2023-03-01T08:21:35;18.47;;;12.47;;
3293;SDS011;1659;51.470;6.770;2023-03-01T08:24:07;21.23;;;14.63;;
3293;SDS011;1659;51.470;6.770;2023-03-01T08:26:35;21.60;;;14.00;;
3293;SDS011;1659;51.470;6.770;2023-03-01T08:29:05;24.47;;;13.80;;
3293;SDS011;1659;51.470;6.770;2023-03-01T08:31:33;17.73;;;13.10;;
3293;SDS011;1659;51.470;6.770;2023-03-01T08:34:04;22.00;;;14.43;;
3293;SDS011;1659;51.470;6.770;2023-03-01T08:36:33;23.37;;;14.13;;
3293;SDS011;1659;51.470;6.770;2023-03-01T08:39:02;20.40;;;13.17;;
3293;SDS011;1659;51.470;6.770;2023-03-01T08:41:30;26.03;;;13.07;;
3293;SDS011;1659;51.470;6.770;2023-03-01T08:43:57;21.23;;;13.80;;
3293;SDS011;1659;51.470;6.770;2023-03-01T08:46:24;17.97;;;12.83;;
3293;SDS011;1659;51.470;6.770;2023-03-01T08:48:51;18.60;;;13.20;;
3293;SDS011;1659;51.470;6.770;2023-03-01T08:51:19;16.40;;;13.07;;
3293;SDS011;1659;51.470;6.770;2023-03-01T08:53:46;21.83;;;13.17;;
3293;SDS011;1659;51.470;6.770;2023-03-01T08:56:13;16.97;;;12.50;;
3293;SDS011;1659;51.470;6.770;2023-03-01T08:58:44;17.90;;;13.03;;
3293;SDS011;1659;51.470;6.770;2023-03-01T09:01:13;18.20;;;12.63;;
3293;SDS011;1659;51.470;6.770;2023-03-01T09:03:40;19.90;;;12.97;;
3293;SDS011;1659;51.470;6.770;2023-03-01T09:06:08;21.40;;;13.03;;
3293;SDS011;1659;51.470;6.770;2023-03-01T09:08:35;21.90;;;13.37;;
3293;SDS011;1659;51.470;6.770;2023-03-01T09:11:02;20.70;;;13.27;;
3293;SDS011;1659;51.470;6.770;2023-03-01T09:13:29;21.60;;;13.40;;
3293;SDS011;1659;51.470;6.770;2023-03-01T09:15:58;18.90;;;12.90;;
3293;SDS011;1659;51.470;6.770;2023-03-01T09:18:26;20.43;;;13.20;;
3293;SDS011;1659;51.470;6.770;2023-03-01T09:20:53;22.60;;;13.30;;
3293;SDS011;1659;51.470;6.770;2023-03-01T09:23:26;17.27;;;12.70;;
3293;SDS011;1659;51.470;6.770;2023-03-01T09:25:52;20.93;;;13.10;;
3293;SDS011;1659;51.470;6.770;2023-03-01T09:28:19;15.70;;;12.30;;
3293;SDS011;1659;51.470;6.770;2023-03-01T09:30:48;25.20;;;14.93;;
3293;SDS011;1659;51.470;6.770;2023-03-01T09:33:16;23.83;;;12.83;;
3293;SDS011;1659;51.470;6.770;2023-03-01T09:35:42;15.50;;;11.93;;
3293;SDS011;1659;51.470;6.770;2023-03-01T09:38:11;21.10;;;13.87;;
3293;SDS011;1659;51.470;6.770;2023-03-01T09:40:41;16.00;;;13.03;;
3293;SDS011;1659;51.470;6.770;2023-03-01T09:43:12;19.37;;;12.67;;
3293;SDS011;1659;51.470;6.770;2023-03-01T09:45:45;20.93;;;12.50;;
3293;SDS011;1659;51.470;6.770;2023-03-01T09:48:17;21.73;;;12.47;;
3293;SDS011;1659;51.470;6.770;2023-03-01T09:50:47;15.23;;;12.43;;
3293;SDS011;1659;51.470;6.770;2023-03-01T09:53:15;18.57;;;12.20;;
3293;SDS011;1659;51.470;6.770;2023-03-01T09:55:43;18.17;;;12.53;;
3293;SDS011;1659;51.470;6.770;2023-03-01T09:58:27;17.50;;;12.87;;
3293;SDS011;1659;51.470;6.770;2023-03-01T10:01:03;15.27;;;11.17;;
3293;SDS011;1659;51.470;6.770;2023-03-01T10:03:42;19.43;;;12.43;;
3293;SDS011;1659;51.470;6.770;2023-03-01T10:06:12;14.90;;;12.17;;
3293;SDS011;1659;51.470;6.770;2023-03-01T10:08:42;14.87;;;11.00;;
3293;SDS011;1659;51.470;6.770;2023-03-01T10:11:17;16.40;;;12.03;;
3293;SDS011;1659;51.470;6.770;2023-03-01T10:13:48;17.97;;;12.57;;
3293;SDS011;1659;51.470;6.770;2023-03-01T10:16:21;18.03;;;12.20;;
3293;SDS011;1659;51.470;6.770;2023-03-01T10:18:55;16.73;;;11.60;;
3293;SDS011;1659;51.470;6.770;2023-03-01T10:21:25;21.70;;;12.10;;
3293;SDS011;1659;51.470;6.770;2023-03-01T10:23:53;18.00;;;12.10;;
3293;SDS011;1659;51.470;6.770;2023-03-01T10:26:25;17.00;;;12.40;;
3293;SDS011;1659;51.470;6.770;2023-03-01T10:29:02;17.63;;;12.30;;
3293;SDS011;1659;51.470;6.770;2023-03-01T10:31:35;15.80;;;11.67;;
3293;SDS011;1659;51.470;6.770;2023-03-01T10:34:09;21.80;;;12.00;;
3293;SDS011;1659;51.470;6.770;2023-03-01T10:36:37;20.03;;;11.77;;
3293;SDS011;1659;51.470;6.770;2023-03-01T10:39:10;16.50;;;11.73;;
3293;SDS011;1659;51.470;6.770;2023-03-01T10:41:44;14.20;;;10.70;;
3293;SDS011;1659;51.470;6.770;2023-03-01T10:44:34;17.83;;;11.80;;
3293;SDS011;1659;51.470;6.770;2023-03-01T10:47:02;17.37;;;11.20;;
3293;SDS011;1659;51.470;6.770;2023-03-01T10:49:30;21.30;;;11.23;;
3293;SDS011;1659;51.470;6.770;2023-03-01T10:51:57;15.40;;;11.93;;
3293;SDS011;1659;51.470;6.770;2023-03-01T10:54:45;13.17;;;11.10;;
3293;SDS011;1659;51.470;6.770;2023-03-01T10:57:24;15.83;;;9.80;;
3293;SDS011;1659;51.470;6.770;2023-03-01T11:00:00;15.23;;;10.53;;
3293;SDS011;1659;51.470;6.770;2023-03-01T11:02:41;18.80;;;10.63;;
3293;SDS011;1659;51.470;6.770;2023-03-01T11:05:16;14.57;;;10.80;;
3293;SDS011;1659;51.470;6.770;2023-03-01T11:07:48;14.33;;;10.30;;
3293;SDS011;1659;51.470;6.770;2023-03-01T11:10:20;15.00;;;10.40;;
3293;SDS011;1659;51.470;6.770;2023-03-01T11:12:48;16.63;;;10.40;;
3293;SDS011;1659;51.470;6.770;2023-03-01T11:15:20;14.73;;;9.83;;
3293;SDS011;1659;51.470;6.770;2023-03-01T11:17:53;11.47;;;8.67;;
3293;SDS011;1659;51.470;6.770;2023-03-01T11:20:30;16.33;;;10.03;;
3293;SDS011;1659;51.470;6.770;2023-03-01T11:23:01;13.27;;;9.47;;
3293;SDS011;1659;51.470;6.770;2023-03-01T11:25:36;14.80;;;9.90;;
3293;SDS011;1659;51.470;6.770;2023-03-01T11:28:06;14.10;;;9.77;;
3293;SDS011;1659;51.470;6.770;2023-03-01T11:30:38;12.87;;;9.93;;
3293;SDS011;1659;51.470;6.770;2023-03-01T11:33:15;20.37;;;10.63;;
3293;SDS011;1659;51.470;6.770;2023-03-01T11:35:49;15.17;;;10.80;;
3293;SDS011;1659;51.470;6.770;2023-03-01T11:38:22;16.77;;;11.07;;
3293;SDS011;1659;51.470;6.770;2023-03-01T11:40:53;14.23;;;9.77;;
3293;SDS011;1659;51.470;6.770;2023-03-01T11:43:26;14.70;;;10.37;;
3293;SDS011;1659;51.470;6.770;2023-03-01T11:46:05;17.83;;;10.00;;
3293;SDS011;1659;51.470;6.770;2023-03-01T11:48:57;10.53;;;9.03;;
3293;SDS011;1659;51.470;6.770;2023-03-01T11:51:38;15.33;;;10.07;;
3293;SDS011;1659;51.470;6.770;2023-03-01T11:54:18;13.80;;;9.80;;
3293;SDS011;1659;51.470;6.770;2023-03-01T11:56:55;15.37;;;10.83;;
3293;SDS011;1659;51.470;6.770;2023-03-01T11:59:45;13.23;;;9.30;;
3293;SDS011;1659;51.470;6.770;2023-03-01T12:02:39;10.77;;;9.13;;
3293;SDS011;1659;51.470;6.770;2023-03-01T12:05:24;11.40;;;9.80;;
3293;SDS011;1659;51.470;6.770;2023-03-01T12:08:14;18.67;;;11.10;;
3293;SDS011;1659;51.470;6.770;2023-03-01T12:10:48;10.63;;;9.13;;
3293;SDS011;1659;51.470;6.770;2023-03-01T12:13:26;14.70;;;11.50;;
3293;SDS011;1659;51.470;6.770;2023-03-01T12:16:12;16.73;;;11.63;;
3293;SDS011;1659;51.470;6.770;2023-03-01T12:18:52;13.07;;;10.57;;
3293;SDS011;1659;51.470;6.770;2023-03-01T12:21:30;18.60;;;11.17;;
3293;SDS011;1659;51.470;6.770;2023-03-01T12:24:21;12.33;;;10.83;;
3293;SDS011;1659;51.470;6.770;2023-03-01T12:27:00;12.87;;;9.10;;
3293;SDS011;1659;51.470;6.770;2023-03-01T12:29:47;13.90;;;9.97;;
3293;SDS011;1659;51.470;6.770;2023-03-01T12:32:23;14.77;;;10.90;;
3293;SDS011;1659;51.470;6.770;2023-03-01T12:35:12;15.77;;;9.23;;
3293;SDS011;1659;51.470;6.770;2023-03-01T12:37:54;15.20;;;10.57;;
3293;SDS011;1659;51.470;6.770;2023-03-01T12:40:36;12.40;;;10.23;;
3293;SDS011;1659;51.470;6.770;2023-03-01T12:43:15;12.03;;;9.60;;
3293;SDS011;1659;51.470;6.770;2023-03-01T12:45:50;15.20;;;10.30;;
3293;SDS011;1659;51.470;6.770;2023-03-01T12:48:36;15.80;;;11.20;;
3293;SDS011;1659;51.470;6.770;2023-03-01T12:51:10;15.40;;;10.30;;
3293;SDS011;1659;51.470;6.770;2023-03-01T12:53:41;13.00;;;10.40;;
3293;SDS011;1659;51.470;6.770;2023-03-01T12:56:13;21.50;;;11.40;;
3293;SDS011;1659;51.470;6.770;2023-03-01T12:58:46;12.90;;;10.63;;
3293;SDS011;1659;51.470;6.770;2023-03-01T13:01:22;15.30;;;10.87;;
3293;SDS011;1659;51.470;6.770;2023-03-01T13:04:03;10.73;;;9.23;;
3293;SDS011;1659;51.470;6.770;2023-03-01T13:06:41;12.10;;;8.90;;
3293;SDS011;1659;51.470;6.770;2023-03-01T13:09:19;12.67;;;9.60;;
3293;SDS011;1659;51.470;6.770;2023-03-01T13:11:53;12.80;;;9.83;;
3293;SDS011;1659;51.470;6.770;2023-03-01T13:14:39;11.07;;;9.47;;
3293;SDS011;1659;51.470;6.770;2023-03-01T13:17:31;12.97;;;10.10;;
3293;SDS011;1659;51.470;6.770;2023-03-01T13:19:59;12.67;;;10.27;;
3293;SDS011;1659;51.470;6.770;2023-03-01T13:22:28;14.70;;;9.17;;
3293;SDS011;1659;51.470;6.770;2023-03-01T13:25:02;12.20;;;9.60;;
3293;SDS011;1659;51.470;6.770;2023-03-01T13:27:40;9.97;;;8.33;;
3293;SDS011;1659;51.470;6.770;2023-03-01T13:30:38;14.10;;;9.63;;
3293;SDS011;1659;51.470;6.770;2023-03-01T13:36:05;16.60;;;9.87;;
3293;SDS011;1659;51.470;6.770;2023-03-01T13:38:36;12.87;;;8.60;;
3293;SDS011;1659;51.470;6.770;2023-03-01T13:41:12;15.23;;;10.43;;
3293;SDS011;1659;51.470;6.770;2023-03-01T13:43:41;12.33;;;8.80;;
3293;SDS011;1659;51.470;6.770;2023-03-01T13:46:10;12.30;;;10.50;;
3293;SDS011;1659;51.470;6.770;2023-03-01T13:48:41;12.07;;;9.57;;
3293;SDS011;1659;51.470;6.770;2023-03-01T13:51:13;12.87;;;10.50;;
3293;SDS011;1659;51.470;6.770;2023-03-01T13:53:41;12.80;;;9.37;;
3293;SDS011;1659;51.470;6.770;2023-03-01T13:56:11;13.50;;;10.10;;
3293;SDS011;1659;51.470;6.770;2023-03-01T13:58:51;13.60;;;10.30;;
3293;SDS011;1659;51.470;6.770;2023-03-01T14:01:21;11.37;;;9.53;;
3293;SDS011;1659;51.470;6.770;2023-03-01T14:03:50;15.10;;;9.90;;
3293;SDS011;1659;51.470;6.770;2023-03-01T14:06:19;13.23;;;10.47;;
3293;SDS011;1659;51.470;6.770;2023-03-01T14:08:48;12.97;;;9.83;;
3293;SDS011;1659;51.470;6.770;2023-03-01T14:11:26;12.33;;;9.37;;
3293;SDS011;1659;51.470;6.770;2023-03-01T14:14:18;14.30;;;11.20;;
3293;SDS011;1659;51.470;6.770;2023-03-01T14:17:04;13.60;;;10.40;;
3293;SDS011;1659;51.470;6.770;2023-03-01T14:19:40;13.43;;;10.40;;
3293;SDS011;1659;51.470;6.770;2023-03-01T14:22:13;10.50;;;8.60;;
3293;SDS011;1659;51.470;6.770;2023-03-01T14:24:46;14.80;;;10.50;;
3293;SDS011;1659;51.470;6.770;2023-03-01T14:27:14;14.20;;;9.87;;
3293;SDS011;1659;51.470;6.770;2023-03-01T14:29:43;15.83;;;11.00;;
3293;SDS011;1659;51.470;6.770;2023-03-01T14:32:20;13.27;;;9.80;;
3293;SDS011;1659;51.470;6.770;2023-03-01T14:34:49;18.83;;;10.10;;
3293;SDS011;1659;51.470;6.770;2023-03-01T14:37:19;13.90;;;9.73;;
3293;SDS011;1659;51.470;6.770;2023-03-01T14:39:47;11.50;;;9.60;;
3293;SDS011;1659;51.470;6.770;2023-03-01T14:42:14;14.80;;;11.37;;
3293;SDS011;1659;51.470;6.770;2023-03-01T14:44:42;15.73;;;11.33;;
3293;SDS011;1659;51.470;6.770;2023-03-01T14:47:12;15.53;;;10.80;;
3293;SDS011;1659;51.470;6.770;2023-03-01T14:49:41;17.07;;;10.83;;
3293;SDS011;1659;51.470;6.770;2023-03-01T14:52:17;20.20;;;12.00;;
3293;SDS011;1659;51.470;6.770;2023-03-01T14:54:46;16.60;;;11.97;;
3293;SDS011;1659;51.470;6.770;2023-03-01T14:57:15;13.90;;;11.13;;
3293;SDS011;1659;51.470;6.770;2023-03-01T14:59:46;19.90;;;11.43;;
3293;SDS011;1659;51.470;6.770;2023-03-01T15:02:14;17.83;;;12.17;;
3293;SDS011;1659;51.470;6.770;2023-03-01T15:04:44;16.90;;;11.70;;
3293;SDS011;1659;51.470;6.770;2023-03-01T15:07:14;15.07;;;11.70;;
3293;SDS011;1659;51.470;6.770;2023-03-01T15:09:42;18.90;;;11.67;;
3293;SDS011;1659;51.470;6.770;2023-03-01T15:14:53;16.43;;;11.87;;